Ridgecrest, CA

2:29 PM PDT on August 30, 2015 (GMT -0700)
APRSWXNET | | Change Station
CLOSE
Current Station
Personal Weather Station
Location: Ridgecrest, CA
Elevation: 2391 ft
Nearby Weather Stations

Elev 2391 ft 35.60 °N, 117.70 °W | Updated 34 minutes ago

Clear
Clear
98 °F
Feels Like 93 °F
N
9
Wind Variable Wind from WSW
Gusts 20.0 mph

Today
High -- | Low -- °F
--% Chance of Precip.
Yesterday
High -- | Low -- °F
Precip. -- in
6:21 AM 7:20 PM
Full, 98% visible
Pressure 29.76 in
Visibility 10.0 miles
Clouds Clear
Heat Index 93 °F
Dew Point 39 °F
Humidity 13%
Rainfall in
Snow Depth Not available.
UV 10 out of 12
Pollen 8.30 out of 12
Air Quality Not available.
Flu Activity Not available.
METAR KNID 302056Z AUTO 21016G24KT 10SM CLR 37/00 A2984 RMK AO2 PK WND 21027/2041 SLP076 T03720000 57020 $
Pressure 29.76 in
Visibility 10.0 miles
Clouds Clear
Heat Index 93 °F
Dew Point 39 °F
Humidity 13%
Rainfall in
Snow Depth Not available.
UV 10 out of 12
Pollen 8.30 out of 12
Air Quality Not available.
Flu Activity Not available.
METAR KNID 302056Z AUTO 21016G24KT 10SM CLR 37/00 A2984 RMK AO2 PK WND 21027/2041 SLP076 T03720000 57020 $

10-Day Weather Forecast

×

Almanac

Astronomy

Aug. 30, 2015 Rise Set
Actual Time
Civil Twilight
Nautical Twilight
Astronomical Twilight
Moon
Length of Visible Light
Length of Day
Tomorrow will be .
, % of the Moon is Illuminated

Today's Extremes

State Highs State Lows

Community

WunderPhotos

Upload Photos

1,851,063 photos uploaded!

WunderBlogs® & News

Nearby

Air Quality

  Air Quality AQ Index Pollutant
Not available.

Snow Depth

Station Depth Elevation

Earthquake Activity

City Distance Mag. Time & Date
Minimum magnitude displayed is 2.5.

Coastal Water Temperatures

Place Temperature

Stations

Nearby Weather Stations

Station Location Temp. Windchill Dew Point Humidity Wind Precip. Elev Updated Type